Terminal Aerodrome Forecast
Issued by NWS

Home | Current Version | Previous Version | Text Only | Print | Product List | Glossary On
Versions: 1 2 3 4 5 6 7 8 9 10 11 12 13 14 15 16 17 18 19 20 21
326
FTAK31 PAJN 240535
TAFAYA
TAF
PAYA 240535Z 2406/2506 07006KT P6SM VCSH SCT008 BKN015 OVC025
      TEMPO 2406/2410 00000KT 4SM BR SCT002 BKN008 OVC010
     FM241000 00000KT 2SM BR SCT002 BKN006 OVC010
      TEMPO 2410/2414 07006KT 6SM BR SCT006 OVC015
     FM241800 VRB04KT P6SM SCT010 OVC015
     FM242200 24006KT 5SM -SHRA SCT015 BKN025 OVC035
      AMD LTD TO CLD VIS AND WIND TIL 240900=

USA.gov is the U.S. government's official web portal to all federal, state and local government web resources and services.